sensor_id;sensor_type;location;lat;lon;timestamp;temperature;humidity
10046;DHT22;5063;50.878;4.742;2023-05-10T00:00:21;13.00;99.90
10046;DHT22;5063;50.878;4.742;2023-05-10T00:02:48;12.90;99.90
10046;DHT22;5063;50.878;4.742;2023-05-10T00:05:14;12.90;99.90
10046;DHT22;5063;50.878;4.742;2023-05-10T00:07:40;12.90;99.90
10046;DHT22;5063;50.878;4.742;2023-05-10T00:10:07;12.90;99.90
10046;DHT22;5063;50.878;4.742;2023-05-10T00:12:33;12.90;99.90
10046;DHT22;5063;50.878;4.742;2023-05-10T00:14:58;13.00;99.90
10046;DHT22;5063;50.878;4.742;2023-05-10T00:17:24;13.00;99.90
10046;DHT22;5063;50.878;4.742;2023-05-10T00:19:50;13.00;99.90
10046;DHT22;5063;50.878;4.742;2023-05-10T00:22:15;13.00;99.90
10046;DHT22;5063;50.878;4.742;2023-05-10T00:24:41;13.00;99.90
10046;DHT22;5063;50.878;4.742;2023-05-10T00:27:07;13.10;99.90
10046;DHT22;5063;50.878;4.742;2023-05-10T00:29:33;13.10;99.90
10046;DHT22;5063;50.878;4.742;2023-05-10T00:31:59;13.10;99.90
10046;DHT22;5063;50.878;4.742;2023-05-10T00:34:24;13.10;99.90
10046;DHT22;5063;50.878;4.742;2023-05-10T00:36:50;13.10;99.90
10046;DHT22;5063;50.878;4.742;2023-05-10T00:39:16;13.20;99.90
10046;DHT22;5063;50.878;4.742;2023-05-10T00:41:42;13.20;99.90
10046;DHT22;5063;50.878;4.742;2023-05-10T00:44:07;13.20;99.90
10046;DHT22;5063;50.878;4.742;2023-05-10T00:46:33;13.10;99.90
10046;DHT22;5063;50.878;4.742;2023-05-10T00:48:59;13.20;99.90
10046;DHT22;5063;50.878;4.742;2023-05-10T00:51:25;13.20;99.90
10046;DHT22;5063;50.878;4.742;2023-05-10T00:53:51;13.20;99.90
10046;DHT22;5063;50.878;4.742;2023-05-10T00:56:17;13.20;99.90
10046;DHT22;5063;50.878;4.742;2023-05-10T00:58:43;13.20;99.90
10046;DHT22;5063;50.878;4.742;2023-05-10T01:01:09;13.20;99.90
10046;DHT22;5063;50.878;4.742;2023-05-10T01:03:36;13.10;99.90
10046;DHT22;5063;50.878;4.742;2023-05-10T01:06:02;13.10;99.90
10046;DHT22;5063;50.878;4.742;2023-05-10T01:08:28;13.10;99.90
10046;DHT22;5063;50.878;4.742;2023-05-10T01:10:55;13.20;99.90
10046;DHT22;5063;50.878;4.742;2023-05-10T01:13:34;13.20;99.90
10046;DHT22;5063;50.878;4.742;2023-05-10T01:16:01;13.20;99.90
10046;DHT22;5063;50.878;4.742;2023-05-10T01:18:30;13.20;99.90
10046;DHT22;5063;50.878;4.742;2023-05-10T01:23:42;13.20;99.90
10046;DHT22;5063;50.878;4.742;2023-05-10T01:37:21;13.30;99.90
10046;DHT22;5063;50.878;4.742;2023-05-10T01:39:58;13.30;99.90
10046;DHT22;5063;50.878;4.742;2023-05-10T01:42:28;13.20;99.90
10046;DHT22;5063;50.878;4.742;2023-05-10T01:48:07;13.20;99.90
10046;DHT22;5063;50.878;4.742;2023-05-10T01:50:36;13.30;99.90
10046;DHT22;5063;50.878;4.742;2023-05-10T01:53:03;13.20;99.90
10046;DHT22;5063;50.878;4.742;2023-05-10T01:55:34;13.30;99.90
10046;DHT22;5063;50.878;4.742;2023-05-10T01:58:09;13.20;99.90
10046;DHT22;5063;50.878;4.742;2023-05-10T02:00:40;13.20;99.90
10046;DHT22;5063;50.878;4.742;2023-05-10T02:03:08;13.20;99.90
10046;DHT22;5063;50.878;4.742;2023-05-10T02:05:36;13.20;99.90
10046;DHT22;5063;50.878;4.742;2023-05-10T02:08:05;13.10;99.90
10046;DHT22;5063;50.878;4.742;2023-05-10T02:10:34;13.10;99.90
10046;DHT22;5063;50.878;4.742;2023-05-10T02:13:01;13.20;99.90
10046;DHT22;5063;50.878;4.742;2023-05-10T02:15:27;13.10;99.90
10046;DHT22;5063;50.878;4.742;2023-05-10T02:17:58;13.20;99.90
10046;DHT22;5063;50.878;4.742;2023-05-10T02:20:25;13.20;99.90
10046;DHT22;5063;50.878;4.742;2023-05-10T02:22:53;13.20;99.90
10046;DHT22;5063;50.878;4.742;2023-05-10T02:25:21;13.20;99.90
10046;DHT22;5063;50.878;4.742;2023-05-10T02:27:47;13.20;99.90
10046;DHT22;5063;50.878;4.742;2023-05-10T02:30:14;13.20;99.90
10046;DHT22;5063;50.878;4.742;2023-05-10T02:32:41;13.20;99.90
10046;DHT22;5063;50.878;4.742;2023-05-10T02:35:08;13.20;99.90
10046;DHT22;5063;50.878;4.742;2023-05-10T02:37:37;13.30;99.90
10046;DHT22;5063;50.878;4.742;2023-05-10T02:40:04;13.30;99.90
10046;DHT22;5063;50.878;4.742;2023-05-10T02:42:33;13.30;99.90
10046;DHT22;5063;50.878;4.742;2023-05-10T02:45:01;13.30;99.90
10046;DHT22;5063;50.878;4.742;2023-05-10T02:47:29;13.30;99.90
10046;DHT22;5063;50.878;4.742;2023-05-10T02:49:55;13.30;99.90
10046;DHT22;5063;50.878;4.742;2023-05-10T02:52:27;13.30;99.90
10046;DHT22;5063;50.878;4.742;2023-05-10T02:54:56;13.30;99.90
10046;DHT22;5063;50.878;4.742;2023-05-10T02:57:27;13.30;99.90
10046;DHT22;5063;50.878;4.742;2023-05-10T02:59:54;13.30;99.90
10046;DHT22;5063;50.878;4.742;2023-05-10T03:02:20;13.40;99.90
10046;DHT22;5063;50.878;4.742;2023-05-10T03:04:46;13.30;99.90
10046;DHT22;5063;50.878;4.742;2023-05-10T03:07:12;13.30;99.90
10046;DHT22;5063;50.878;4.742;2023-05-10T03:09:38;13.40;99.90
10046;DHT22;5063;50.878;4.742;2023-05-10T03:18:07;13.30;99.90
10046;DHT22;5063;50.878;4.742;2023-05-10T03:20:50;13.30;99.90
10046;DHT22;5063;50.878;4.742;2023-05-10T03:25:52;13.30;99.90
10046;DHT22;5063;50.878;4.742;2023-05-10T03:28:18;13.30;99.90
10046;DHT22;5063;50.878;4.742;2023-05-10T03:30:46;13.30;99.90
10046;DHT22;5063;50.878;4.742;2023-05-10T03:33:12;13.30;99.90
10046;DHT22;5063;50.878;4.742;2023-05-10T03:35:38;13.30;99.90
10046;DHT22;5063;50.878;4.742;2023-05-10T03:38:04;13.20;99.90
10046;DHT22;5063;50.878;4.742;2023-05-10T03:40:30;13.10;99.90
10046;DHT22;5063;50.878;4.742;2023-05-10T03:42:58;13.10;99.90
10046;DHT22;5063;50.878;4.742;2023-05-10T03:45:24;13.00;99.90
10046;DHT22;5063;50.878;4.742;2023-05-10T03:47:50;13.00;99.90
10046;DHT22;5063;50.878;4.742;2023-05-10T03:50:16;13.00;99.90
10046;DHT22;5063;50.878;4.742;2023-05-10T03:52:42;13.00;99.90
10046;DHT22;5063;50.878;4.742;2023-05-10T03:55:09;12.90;99.90
10046;DHT22;5063;50.878;4.742;2023-05-10T03:57:34;12.90;99.90
10046;DHT22;5063;50.878;4.742;2023-05-10T04:00:01;12.90;99.90
10046;DHT22;5063;50.878;4.742;2023-05-10T04:02:26;12.90;99.90
10046;DHT22;5063;50.878;4.742;2023-05-10T04:04:52;12.80;99.90
10046;DHT22;5063;50.878;4.742;2023-05-10T04:07:18;12.80;99.90
10046;DHT22;5063;50.878;4.742;2023-05-10T04:09:43;12.80;99.90
10046;DHT22;5063;50.878;4.742;2023-05-10T04:12:09;12.80;99.90
10046;DHT22;5063;50.878;4.742;2023-05-10T04:14:35;12.80;99.90
10046;DHT22;5063;50.878;4.742;2023-05-10T04:17:01;12.70;99.90
10046;DHT22;5063;50.878;4.742;2023-05-10T04:19:33;12.70;99.90
10046;DHT22;5063;50.878;4.742;2023-05-10T04:21:59;12.60;99.90
10046;DHT22;5063;50.878;4.742;2023-05-10T04:24:26;12.70;99.90
10046;DHT22;5063;50.878;4.742;2023-05-10T04:26:51;12.60;99.90
10046;DHT22;5063;50.878;4.742;2023-05-10T04:29:17;12.60;99.90
10046;DHT22;5063;50.878;4.742;2023-05-10T04:31:44;12.60;99.90
10046;DHT22;5063;50.878;4.742;2023-05-10T04:34:09;12.70;99.90
10046;DHT22;5063;50.878;4.742;2023-05-10T04:36:35;12.70;99.90
10046;DHT22;5063;50.878;4.742;2023-05-10T04:39:03;12.60;99.90
10046;DHT22;5063;50.878;4.742;2023-05-10T04:41:29;12.70;99.90
10046;DHT22;5063;50.878;4.742;2023-05-10T04:43:55;12.70;99.90
10046;DHT22;5063;50.878;4.742;2023-05-10T04:46:21;12.70;99.90
10046;DHT22;5063;50.878;4.742;2023-05-10T04:48:47;12.70;99.90
10046;DHT22;5063;50.878;4.742;2023-05-10T04:51:12;12.70;99.90
10046;DHT22;5063;50.878;4.742;2023-05-10T04:53:38;12.70;99.90
10046;DHT22;5063;50.878;4.742;2023-05-10T04:56:04;12.70;99.90
10046;DHT22;5063;50.878;4.742;2023-05-10T04:58:30;12.70;99.90
10046;DHT22;5063;50.878;4.742;2023-05-10T05:00:57;12.70;99.90
10046;DHT22;5063;50.878;4.742;2023-05-10T05:03:23;12.80;99.90
10046;DHT22;5063;50.878;4.742;2023-05-10T05:05:48;12.80;99.90
10046;DHT22;5063;50.878;4.742;2023-05-10T05:08:14;12.80;99.90
10046;DHT22;5063;50.878;4.742;2023-05-10T05:10:40;12.80;99.90
10046;DHT22;5063;50.878;4.742;2023-05-10T05:13:06;12.80;99.90
10046;DHT22;5063;50.878;4.742;2023-05-10T05:15:31;12.70;99.90
10046;DHT22;5063;50.878;4.742;2023-05-10T05:17:57;12.80;99.90
10046;DHT22;5063;50.878;4.742;2023-05-10T05:20:23;12.70;99.90
10046;DHT22;5063;50.878;4.742;2023-05-10T05:22:48;12.90;99.90
10046;DHT22;5063;50.878;4.742;2023-05-10T05:25:14;12.90;99.90
10046;DHT22;5063;50.878;4.742;2023-05-10T05:27:41;13.00;99.90
10046;DHT22;5063;50.878;4.742;2023-05-10T05:30:07;13.10;99.90
10046;DHT22;5063;50.878;4.742;2023-05-10T05:32:33;13.10;99.90
10046;DHT22;5063;50.878;4.742;2023-05-10T05:34:59;13.10;99.90
10046;DHT22;5063;50.878;4.742;2023-05-10T05:37:25;13.20;99.90
10046;DHT22;5063;50.878;4.742;2023-05-10T05:39:51;13.20;99.90
10046;DHT22;5063;50.878;4.742;2023-05-10T05:42:16;13.20;99.90
10046;DHT22;5063;50.878;4.742;2023-05-10T05:44:44;13.30;99.90
10046;DHT22;5063;50.878;4.742;2023-05-10T05:47:10;13.30;99.90
10046;DHT22;5063;50.878;4.742;2023-05-10T05:49:36;13.20;99.90
10046;DHT22;5063;50.878;4.742;2023-05-10T05:52:03;13.20;99.90
10046;DHT22;5063;50.878;4.742;2023-05-10T05:54:29;13.20;99.90
10046;DHT22;5063;50.878;4.742;2023-05-10T05:56:57;13.20;99.90
10046;DHT22;5063;50.878;4.742;2023-05-10T05:59:23;13.20;99.90
10046;DHT22;5063;50.878;4.742;2023-05-10T06:01:49;13.20;99.90
10046;DHT22;5063;50.878;4.742;2023-05-10T06:04:17;13.20;99.90
10046;DHT22;5063;50.878;4.742;2023-05-10T06:06:43;13.10;99.90
10046;DHT22;5063;50.878;4.742;2023-05-10T06:09:09;13.20;99.90
10046;DHT22;5063;50.878;4.742;2023-05-10T06:11:35;13.30;99.90
10046;DHT22;5063;50.878;4.742;2023-05-10T06:14:01;13.30;99.90
10046;DHT22;5063;50.878;4.742;2023-05-10T06:16:29;13.40;99.90
10046;DHT22;5063;50.878;4.742;2023-05-10T06:18:54;13.50;99.90
10046;DHT22;5063;50.878;4.742;2023-05-10T06:21:20;13.60;99.90
10046;DHT22;5063;50.878;4.742;2023-05-10T06:23:46;13.60;99.90
10046;DHT22;5063;50.878;4.742;2023-05-10T06:26:12;13.60;99.90
10046;DHT22;5063;50.878;4.742;2023-05-10T06:28:39;13.70;99.90
10046;DHT22;5063;50.878;4.742;2023-05-10T06:31:06;13.80;99.90
10046;DHT22;5063;50.878;4.742;2023-05-10T06:33:32;13.80;99.90
10046;DHT22;5063;50.878;4.742;2023-05-10T06:35:58;14.00;99.90
10046;DHT22;5063;50.878;4.742;2023-05-10T06:38:24;14.10;99.90
10046;DHT22;5063;50.878;4.742;2023-05-10T06:40:49;14.10;99.90
10046;DHT22;5063;50.878;4.742;2023-05-10T06:43:16;14.30;99.90
10046;DHT22;5063;50.878;4.742;2023-05-10T06:45:42;14.30;99.90
10046;DHT22;5063;50.878;4.742;2023-05-10T06:48:08;14.30;99.90
10046;DHT22;5063;50.878;4.742;2023-05-10T06:50:34;14.50;99.90
10046;DHT22;5063;50.878;4.742;2023-05-10T06:53:00;14.60;99.90
10046;DHT22;5063;50.878;4.742;2023-05-10T06:55:27;14.70;99.90
10046;DHT22;5063;50.878;4.742;2023-05-10T06:57:54;14.80;99.90
10046;DHT22;5063;50.878;4.742;2023-05-10T07:00:19;14.90;99.90
10046;DHT22;5063;50.878;4.742;2023-05-10T07:02:46;15.00;99.90
10046;DHT22;5063;50.878;4.742;2023-05-10T07:05:12;15.10;99.90
10046;DHT22;5063;50.878;4.742;2023-05-10T07:07:39;15.10;99.90
10046;DHT22;5063;50.878;4.742;2023-05-10T07:10:05;15.10;99.90
10046;DHT22;5063;50.878;4.742;2023-05-10T07:12:31;14.90;99.90
10046;DHT22;5063;50.878;4.742;2023-05-10T07:14:57;15.00;99.90
10046;DHT22;5063;50.878;4.742;2023-05-10T07:17:22;15.00;99.90
10046;DHT22;5063;50.878;4.742;2023-05-10T07:19:48;14.80;99.90
10046;DHT22;5063;50.878;4.742;2023-05-10T07:22:17;14.90;99.90
10046;DHT22;5063;50.878;4.742;2023-05-10T07:24:43;15.40;99.90
10046;DHT22;5063;50.878;4.742;2023-05-10T07:27:09;15.80;99.90
10046;DHT22;5063;50.878;4.742;2023-05-10T07:29:35;16.00;99.90
10046;DHT22;5063;50.878;4.742;2023-05-10T07:32:01;16.20;99.90
10046;DHT22;5063;50.878;4.742;2023-05-10T07:34:27;16.00;99.90
10046;DHT22;5063;50.878;4.742;2023-05-10T07:36:56;15.80;99.90
10046;DHT22;5063;50.878;4.742;2023-05-10T07:39:21;15.60;99.90
10046;DHT22;5063;50.878;4.742;2023-05-10T07:41:47;15.40;99.90
10046;DHT22;5063;50.878;4.742;2023-05-10T07:44:13;15.20;99.90
10046;DHT22;5063;50.878;4.742;2023-05-10T07:46:39;15.00;99.90
10046;DHT22;5063;50.878;4.742;2023-05-10T07:49:04;14.80;99.90
10046;DHT22;5063;50.878;4.742;2023-05-10T07:51:30;14.60;99.90
10046;DHT22;5063;50.878;4.742;2023-05-10T07:53:57;14.50;99.90
10046;DHT22;5063;50.878;4.742;2023-05-10T07:56:28;14.40;99.90
10046;DHT22;5063;50.878;4.742;2023-05-10T07:59:00;14.30;99.90
10046;DHT22;5063;50.878;4.742;2023-05-10T08:01:26;14.30;99.90
10046;DHT22;5063;50.878;4.742;2023-05-10T08:03:55;14.20;99.90
10046;DHT22;5063;50.878;4.742;2023-05-10T08:06:21;14.20;99.90
10046;DHT22;5063;50.878;4.742;2023-05-10T08:08:47;14.10;99.90
10046;DHT22;5063;50.878;4.742;2023-05-10T08:11:19;13.90;99.90
10046;DHT22;5063;50.878;4.742;2023-05-10T08:13:46;13.80;99.90
10046;DHT22;5063;50.878;4.742;2023-05-10T08:16:12;13.80;99.90
10046;DHT22;5063;50.878;4.742;2023-05-10T08:18:39;13.80;99.90
10046;DHT22;5063;50.878;4.742;2023-05-10T08:21:05;13.70;99.90
10046;DHT22;5063;50.878;4.742;2023-05-10T08:23:31;13.70;99.90
10046;DHT22;5063;50.878;4.742;2023-05-10T08:25:57;13.70;99.90
10046;DHT22;5063;50.878;4.742;2023-05-10T08:28:22;13.70;99.90
10046;DHT22;5063;50.878;4.742;2023-05-10T08:30:49;13.60;99.90
10046;DHT22;5063;50.878;4.742;2023-05-10T08:33:17;13.80;99.90
10046;DHT22;5063;50.878;4.742;2023-05-10T08:35:43;13.90;99.90
10046;DHT22;5063;50.878;4.742;2023-05-10T08:38:08;14.00;99.90
10046;DHT22;5063;50.878;4.742;2023-05-10T08:40:34;14.00;99.90
10046;DHT22;5063;50.878;4.742;2023-05-10T08:43:06;13.80;99.90
10046;DHT22;5063;50.878;4.742;2023-05-10T08:45:39;13.70;99.90
10046;DHT22;5063;50.878;4.742;2023-05-10T08:48:06;13.80;99.90
10046;DHT22;5063;50.878;4.742;2023-05-10T08:50:36;13.80;99.90
10046;DHT22;5063;50.878;4.742;2023-05-10T08:53:14;13.80;99.90
10046;DHT22;5063;50.878;4.742;2023-05-10T08:55:41;13.90;99.90
10046;DHT22;5063;50.878;4.742;2023-05-10T08:58:08;14.10;99.90
10046;DHT22;5063;50.878;4.742;2023-05-10T09:00:34;14.30;99.90
10046;DHT22;5063;50.878;4.742;2023-05-10T09:03:02;14.30;99.90
10046;DHT22;5063;50.878;4.742;2023-05-10T09:05:28;14.20;99.90
10046;DHT22;5063;50.878;4.742;2023-05-10T09:07:54;14.40;99.90
10046;DHT22;5063;50.878;4.742;2023-05-10T09:10:20;14.40;99.90
10046;DHT22;5063;50.878;4.742;2023-05-10T09:12:48;14.50;99.90
10046;DHT22;5063;50.878;4.742;2023-05-10T09:15:17;14.60;99.90
10046;DHT22;5063;50.878;4.742;2023-05-10T09:17:45;14.50;99.90
10046;DHT22;5063;50.878;4.742;2023-05-10T09:20:11;14.60;99.90
10046;DHT22;5063;50.878;4.742;2023-05-10T09:22:37;14.70;99.90
10046;DHT22;5063;50.878;4.742;2023-05-10T09:25:11;14.80;99.90
10046;DHT22;5063;50.878;4.742;2023-05-10T09:27:43;14.80;99.90
10046;DHT22;5063;50.878;4.742;2023-05-10T09:30:15;14.80;99.90
10046;DHT22;5063;50.878;4.742;2023-05-10T09:32:47;14.80;99.90
10046;DHT22;5063;50.878;4.742;2023-05-10T09:35:15;15.00;99.90
10046;DHT22;5063;50.878;4.742;2023-05-10T09:37:43;15.00;99.90
10046;DHT22;5063;50.878;4.742;2023-05-10T09:40:19;15.00;99.90
10046;DHT22;5063;50.878;4.742;2023-05-10T09:42:58;15.10;99.90
10046;DHT22;5063;50.878;4.742;2023-05-10T09:45:27;15.00;99.90
10046;DHT22;5063;50.878;4.742;2023-05-10T09:47:53;15.10;99.90
10046;DHT22;5063;50.878;4.742;2023-05-10T09:50:19;15.10;99.90
10046;DHT22;5063;50.878;4.742;2023-05-10T09:53:00;15.20;99.90
10046;DHT22;5063;50.878;4.742;2023-05-10T09:55:39;15.40;99.90
10046;DHT22;5063;50.878;4.742;2023-05-10T09:58:05;15.50;99.90
10046;DHT22;5063;50.878;4.742;2023-05-10T10:00:37;15.40;99.90
10046;DHT22;5063;50.878;4.742;2023-05-10T10:03:03;15.40;99.90
10046;DHT22;5063;50.878;4.742;2023-05-10T10:05:34;15.80;99.90
10046;DHT22;5063;50.878;4.742;2023-05-10T10:08:03;16.20;99.90
10046;DHT22;5063;50.878;4.742;2023-05-10T10:10:31;16.40;99.90
10046;DHT22;5063;50.878;4.742;2023-05-10T10:12:57;16.10;99.90
10046;DHT22;5063;50.878;4.742;2023-05-10T10:15:23;16.30;99.90
10046;DHT22;5063;50.878;4.742;2023-05-10T10:17:50;16.40;99.90
10046;DHT22;5063;50.878;4.742;2023-05-10T10:20:17;16.10;99.90
10046;DHT22;5063;50.878;4.742;2023-05-10T10:22:43;15.90;99.90
10046;DHT22;5063;50.878;4.742;2023-05-10T10:25:20;16.00;99.90
10046;DHT22;5063;50.878;4.742;2023-05-10T10:30:41;15.80;99.90
10046;DHT22;5063;50.878;4.742;2023-05-10T10:36:12;15.90;99.90
10046;DHT22;5063;50.878;4.742;2023-05-10T10:49:53;16.60;99.90
10046;DHT22;5063;50.878;4.742;2023-05-10T10:52:37;16.80;99.90
10046;DHT22;5063;50.878;4.742;2023-05-10T10:57:55;17.20;99.90
10046;DHT22;5063;50.878;4.742;2023-05-10T11:05:34;17.60;99.90
10046;DHT22;5063;50.878;4.742;2023-05-10T11:08:13;17.70;99.90
10046;DHT22;5063;50.878;4.742;2023-05-10T11:10:40;18.10;99.90
10046;DHT22;5063;50.878;4.742;2023-05-10T11:13:14;18.10;99.90
10046;DHT22;5063;50.878;4.742;2023-05-10T11:15:48;18.70;99.90
10046;DHT22;5063;50.878;4.742;2023-05-10T11:18:28;18.90;99.90
10046;DHT22;5063;50.878;4.742;2023-05-10T11:23:30;19.20;99.90
10046;DHT22;5063;50.878;4.742;2023-05-10T11:25:56;19.50;99.90
10046;DHT22;5063;50.878;4.742;2023-05-10T11:28:22;19.60;99.90
10046;DHT22;5063;50.878;4.742;2023-05-10T11:30:48;20.20;99.90
10046;DHT22;5063;50.878;4.742;2023-05-10T11:33:18;20.00;99.90
10046;DHT22;5063;50.878;4.742;2023-05-10T11:35:45;20.20;99.90
10046;DHT22;5063;50.878;4.742;2023-05-10T11:38:12;20.30;99.90
10046;DHT22;5063;50.878;4.742;2023-05-10T11:40:38;20.20;99.90
10046;DHT22;5063;50.878;4.742;2023-05-10T11:43:05;20.30;99.90
10046;DHT22;5063;50.878;4.742;2023-05-10T11:45:33;20.10;99.90
10046;DHT22;5063;50.878;4.742;2023-05-10T11:47:59;20.30;99.90
10046;DHT22;5063;50.878;4.742;2023-05-10T11:50:25;20.20;99.90
10046;DHT22;5063;50.878;4.742;2023-05-10T11:52:52;20.40;99.90
10046;DHT22;5063;50.878;4.742;2023-05-10T11:55:19;20.10;99.90
10046;DHT22;5063;50.878;4.742;2023-05-10T11:57:45;20.00;99.90
10046;DHT22;5063;50.878;4.742;2023-05-10T12:00:12;20.20;99.90
10046;DHT22;5063;50.878;4.742;2023-05-10T12:02:39;20.20;99.90
10046;DHT22;5063;50.878;4.742;2023-05-10T12:05:06;19.90;99.90
10046;DHT22;5063;50.878;4.742;2023-05-10T12:07:33;19.70;99.90
10046;DHT22;5063;50.878;4.742;2023-05-10T12:10:12;19.60;99.90
10046;DHT22;5063;50.878;4.742;2023-05-10T12:12:44;19.60;99.90
10046;DHT22;5063;50.878;4.742;2023-05-10T12:15:21;19.50;99.90
10046;DHT22;5063;50.878;4.742;2023-05-10T12:17:48;19.50;99.90
10046;DHT22;5063;50.878;4.742;2023-05-10T12:20:21;19.30;99.90
10046;DHT22;5063;50.878;4.742;2023-05-10T12:22:56;19.50;99.90
10046;DHT22;5063;50.878;4.742;2023-05-10T12:25:23;19.70;99.90
10046;DHT22;5063;50.878;4.742;2023-05-10T12:27:52;19.70;99.90
10046;DHT22;5063;50.878;4.742;2023-05-10T12:30:26;19.90;99.90
10046;DHT22;5063;50.878;4.742;2023-05-10T12:32:52;20.50;99.90
10046;DHT22;5063;50.878;4.742;2023-05-10T12:35:19;20.60;99.90
10046;DHT22;5063;50.878;4.742;2023-05-10T12:37:50;20.50;99.90
10046;DHT22;5063;50.878;4.742;2023-05-10T12:40:16;20.40;99.90
10046;DHT22;5063;50.878;4.742;2023-05-10T12:42:42;20.40;99.90
10046;DHT22;5063;50.878;4.742;2023-05-10T12:45:11;20.30;99.90
10046;DHT22;5063;50.878;4.742;2023-05-10T12:47:37;20.80;99.90
10046;DHT22;5063;50.878;4.742;2023-05-10T12:50:03;20.80;99.90
10046;DHT22;5063;50.878;4.742;2023-05-10T12:52:30;21.00;99.90
10046;DHT22;5063;50.878;4.742;2023-05-10T12:54:59;21.10;99.90
10046;DHT22;5063;50.878;4.742;2023-05-10T12:57:26;20.50;99.90
10046;DHT22;5063;50.878;4.742;2023-05-10T12:59:51;20.40;99.90
10046;DHT22;5063;50.878;4.742;2023-05-10T13:02:17;20.30;99.90
10046;DHT22;5063;50.878;4.742;2023-05-10T13:04:44;20.20;99.90
10046;DHT22;5063;50.878;4.742;2023-05-10T13:07:10;19.90;99.90
10046;DHT22;5063;50.878;4.742;2023-05-10T13:09:36;19.50;99.90
10046;DHT22;5063;50.878;4.742;2023-05-10T13:12:02;19.50;99.90
10046;DHT22;5063;50.878;4.742;2023-05-10T13:14:28;19.50;99.90
10046;DHT22;5063;50.878;4.742;2023-05-10T13:16:54;19.60;99.90
10046;DHT22;5063;50.878;4.742;2023-05-10T13:19:20;19.50;99.90
10046;DHT22;5063;50.878;4.742;2023-05-10T13:21:46;19.80;99.90
10046;DHT22;5063;50.878;4.742;2023-05-10T13:24:12;20.00;99.90
10046;DHT22;5063;50.878;4.742;2023-05-10T13:26:42;20.10;99.90
10046;DHT22;5063;50.878;4.742;2023-05-10T13:29:08;20.00;99.90
10046;DHT22;5063;50.878;4.742;2023-05-10T13:31:34;19.90;99.90
10046;DHT22;5063;50.878;4.742;2023-05-10T13:34:00;20.00;99.90
10046;DHT22;5063;50.878;4.742;2023-05-10T13:36:26;19.60;99.90
10046;DHT22;5063;50.878;4.742;2023-05-10T13:38:52;19.70;99.90
10046;DHT22;5063;50.878;4.742;2023-05-10T13:41:18;19.80;99.90
10046;DHT22;5063;50.878;4.742;2023-05-10T13:43:43;19.80;99.90
10046;DHT22;5063;50.878;4.742;2023-05-10T13:46:09;20.00;99.90
10046;DHT22;5063;50.878;4.742;2023-05-10T13:48:35;20.20;99.90
10046;DHT22;5063;50.878;4.742;2023-05-10T13:51:02;20.10;99.90
10046;DHT22;5063;50.878;4.742;2023-05-10T13:53:28;20.30;99.90
10046;DHT22;5063;50.878;4.742;2023-05-10T13:55:54;20.20;99.90
10046;DHT22;5063;50.878;4.742;2023-05-10T13:58:20;19.90;99.90
10046;DHT22;5063;50.878;4.742;2023-05-10T14:00:46;20.00;99.90
10046;DHT22;5063;50.878;4.742;2023-05-10T14:03:11;20.20;99.90
10046;DHT22;5063;50.878;4.742;2023-05-10T14:05:37;20.00;99.90
10046;DHT22;5063;50.878;4.742;2023-05-10T14:08:03;19.80;99.90
10046;DHT22;5063;50.878;4.742;2023-05-10T14:10:29;19.50;99.90
10046;DHT22;5063;50.878;4.742;2023-05-10T14:12:55;19.50;99.90
10046;DHT22;5063;50.878;4.742;2023-05-10T14:15:21;19.70;99.90
10046;DHT22;5063;50.878;4.742;2023-05-10T14:17:47;19.80;99.90
10046;DHT22;5063;50.878;4.742;2023-05-10T14:20:13;20.20;99.90
10046;DHT22;5063;50.878;4.742;2023-05-10T14:22:38;20.00;99.90
10046;DHT22;5063;50.878;4.742;2023-05-10T14:25:04;19.90;99.90
10046;DHT22;5063;50.878;4.742;2023-05-10T14:27:31;20.10;99.90
10046;DHT22;5063;50.878;4.742;2023-05-10T14:29:57;19.90;99.90
10046;DHT22;5063;50.878;4.742;2023-05-10T14:32:23;20.20;99.90
10046;DHT22;5063;50.878;4.742;2023-05-10T14:34:49;20.10;99.90
10046;DHT22;5063;50.878;4.742;2023-05-10T14:37:14;20.10;99.90
10046;DHT22;5063;50.878;4.742;2023-05-10T14:39:40;20.10;99.90
10046;DHT22;5063;50.878;4.742;2023-05-10T14:42:07;19.70;99.90
10046;DHT22;5063;50.878;4.742;2023-05-10T14:44:34;19.60;99.90
10046;DHT22;5063;50.878;4.742;2023-05-10T14:46:59;19.60;99.90
10046;DHT22;5063;50.878;4.742;2023-05-10T14:49:25;19.60;99.90
10046;DHT22;5063;50.878;4.742;2023-05-10T14:51:52;19.50;99.90
10046;DHT22;5063;50.878;4.742;2023-05-10T14:54:18;19.60;99.90
10046;DHT22;5063;50.878;4.742;2023-05-10T14:56:43;19.60;99.90
10046;DHT22;5063;50.878;4.742;2023-05-10T14:59:09;19.40;99.90
10046;DHT22;5063;50.878;4.742;2023-05-10T15:01:35;19.60;99.90
10046;DHT22;5063;50.878;4.742;2023-05-10T15:04:06;19.70;99.90
10046;DHT22;5063;50.878;4.742;2023-05-10T15:06:35;19.30;99.90
10046;DHT22;5063;50.878;4.742;2023-05-10T15:09:01;19.30;99.90
10046;DHT22;5063;50.878;4.742;2023-05-10T15:11:29;19.00;99.90
10046;DHT22;5063;50.878;4.742;2023-05-10T15:13:55;19.00;99.90
10046;DHT22;5063;50.878;4.742;2023-05-10T15:16:21;18.90;99.90
10046;DHT22;5063;50.878;4.742;2023-05-10T15:18:47;18.70;99.90
10046;DHT22;5063;50.878;4.742;2023-05-10T15:21:13;18.60;99.90
10046;DHT22;5063;50.878;4.742;2023-05-10T15:23:39;18.70;99.90
10046;DHT22;5063;50.878;4.742;2023-05-10T15:26:05;18.60;99.90
10046;DHT22;5063;50.878;4.742;2023-05-10T15:28:31;18.40;99.90
10046;DHT22;5063;50.878;4.742;2023-05-10T15:30:57;18.40;99.90
10046;DHT22;5063;50.878;4.742;2023-05-10T15:33:22;18.70;99.90
10046;DHT22;5063;50.878;4.742;2023-05-10T15:35:48;18.80;99.90
10046;DHT22;5063;50.878;4.742;2023-05-10T15:38:14;19.20;99.90
10046;DHT22;5063;50.878;4.742;2023-05-10T15:40:40;19.90;99.90
10046;DHT22;5063;50.878;4.742;2023-05-10T15:43:06;20.20;99.90
10046;DHT22;5063;50.878;4.742;2023-05-10T15:45:31;20.10;99.90
10046;DHT22;5063;50.878;4.742;2023-05-10T15:47:58;20.10;99.90
10046;DHT22;5063;50.878;4.742;2023-05-10T15:50:24;19.80;99.90
10046;DHT22;5063;50.878;4.742;2023-05-10T15:52:50;19.10;99.90
10046;DHT22;5063;50.878;4.742;2023-05-10T15:55:16;18.60;99.90
10046;DHT22;5063;50.878;4.742;2023-05-10T15:57:43;18.30;99.90
10046;DHT22;5063;50.878;4.742;2023-05-10T16:00:10;17.80;99.90
10046;DHT22;5063;50.878;4.742;2023-05-10T16:02:36;17.40;99.90
10046;DHT22;5063;50.878;4.742;2023-05-10T16:05:03;17.00;99.90
10046;DHT22;5063;50.878;4.742;2023-05-10T16:07:29;17.00;99.90
10046;DHT22;5063;50.878;4.742;2023-05-10T16:09:55;16.70;99.90
10046;DHT22;5063;50.878;4.742;2023-05-10T16:12:21;16.60;99.90
10046;DHT22;5063;50.878;4.742;2023-05-10T16:14:47;16.40;99.90
10046;DHT22;5063;50.878;4.742;2023-05-10T16:17:12;16.40;99.90
10046;DHT22;5063;50.878;4.742;2023-05-10T16:19:39;16.20;99.90
10046;DHT22;5063;50.878;4.742;2023-05-10T16:22:06;15.80;99.90
10046;DHT22;5063;50.878;4.742;2023-05-10T16:24:32;15.80;99.90
10046;DHT22;5063;50.878;4.742;2023-05-10T16:26:58;15.40;99.90
10046;DHT22;5063;50.878;4.742;2023-05-10T16:29:23;15.50;99.90
10046;DHT22;5063;50.878;4.742;2023-05-10T16:31:49;15.70;99.90
10046;DHT22;5063;50.878;4.742;2023-05-10T16:34:15;15.80;99.90
10046;DHT22;5063;50.878;4.742;2023-05-10T16:36:41;16.00;99.90